Time;durP1;ratioP1;P1;durP2;ratioP2;P2;SDS_P1;SDS_P2;PMS_P1;PMS_P2;Temp;Humidity;BMP_temperature;BMP_pressure;BME280_temperature;BME280_humidity;BME280_pressure;Samples;Min_cycle;Max_cycle;Signal;HPM_P1;HPM_P2
2024/02/14 00:01:25;;;;;;;0.00;0.00;;;;;;;10.22;100.00;99872.91;6093710;23;20018;-78
2024/02/14 00:03:54;;;;;;;0.00;0.00;;;;;;;10.17;100.00;99858.44;6073050;23;20011;-80
2024/02/14 00:06:19;;;;;;;0.00;0.00;;;;;;;10.36;100.00;99888.75;6072401;23;20006;-80
2024/02/14 00:09:03;;;;;;;0.03;0.03;;;;;;;10.07;100.00;99831.94;6072894;23;19993;-77
2024/02/14 00:12:00;;;;;;;0.00;0.00;;;;;;;10.25;100.00;99858.69;6096354;23;20010;-79
2024/02/14 00:18:10;;;;;;;0.00;0.00;;;;;;;10.41;100.00;99892.28;6125988;23;20076;-79
2024/02/14 00:20:36;;;;;;;0.00;0.00;;;;;;;10.25;100.00;99850.50;6102701;23;20465;-78
2024/02/14 00:23:01;;;;;;;0.00;0.00;;;;;;;10.34;100.00;99863.59;6143191;23;20025;-79
2024/02/14 00:25:27;;;;;;;0.00;0.00;;;;;;;10.30;100.00;99858.66;6147574;23;20017;-78
2024/02/14 00:27:54;;;;;;;0.00;0.00;;;;;;;10.45;100.00;99889.81;6152987;23;20420;-79
2024/02/14 00:30:19;;;;;;;0.10;0.10;;;;;;;10.44;100.00;99877.22;6135806;23;20495;-78
2024/02/14 00:32:45;;;;;;;0.00;0.00;;;;;;;10.39;100.00;99866.31;6137181;23;20016;-78
2024/02/14 00:35:23;;;;;;;0.00;0.00;;;;;;;10.39;100.00;99861.66;6160589;23;20343;-80
2024/02/14 00:49:27;;;;;;;0.00;0.00;;;;;;;10.62;100.00;99897.69;5988689;23;20025;-78
2024/02/14 00:51:53;;;;;;;0.00;0.00;;;;;;;10.61;100.00;99896.84;5961417;24;20031;-78
2024/02/14 00:54:21;;;;;;;0.00;0.00;;;;;;;10.59;100.00;99896.31;5956971;24;20092;-78
2024/02/14 01:03:47;;;;;;;0.00;0.00;;;;;;;10.38;100.00;99853.75;5939339;24;20038;-78
2024/02/14 01:13:29;;;;;;;0.00;0.00;;;;;;;10.75;100.00;99908.03;5929676;24;20058;-78
2024/02/14 01:15:54;;;;;;;0.10;0.10;;;;;;;10.63;100.00;99889.19;5981698;24;20014;-79
2024/02/14 01:25:25;;;;;;;0.00;0.00;;;;;;;10.47;100.00;99868.50;5961432;23;20060;-80
2024/02/14 01:27:52;;;;;;;0.00;0.00;;;;;;;10.72;100.00;99902.28;6007242;23;20023;-79
2024/02/14 01:30:18;;;;;;;0.00;0.00;;;;;;;10.39;100.00;99844.47;6016228;23;20086;-79
2024/02/14 01:39:52;;;;;;;0.00;0.00;;;;;;;10.70;100.00;99896.28;5863224;24;20361;-78
2024/02/14 01:42:20;;;;;;;0.00;0.00;;;;;;;10.79;100.00;99908.25;5875001;24;20377;-79
2024/02/14 01:44:45;;;;;;;0.00;0.00;;;;;;;10.65;100.00;99877.97;5899420;24;20018;-78
2024/02/14 01:51:45;;;;;;;0.00;0.00;;;;;;;10.80;100.00;99899.78;5899187;24;20028;-79
2024/02/14 01:54:14;;;;;;;0.00;0.00;;;;;;;10.83;100.00;99903.88;5874606;24;20013;-80
2024/02/14 01:56:40;;;;;;;0.00;0.00;;;;;;;10.79;100.00;99913.72;5901456;24;20020;-80
2024/02/14 01:59:07;;;;;;;0.00;0.00;;;;;;;10.79;100.00;99902.78;5924544;24;20505;-79
2024/02/14 02:01:33;;;;;;;0.00;0.00;;;;;;;10.86;100.00;99907.97;5905740;24;20013;-80
2024/02/14 02:08:30;;;;;;;0.00;0.00;;;;;;;10.88;100.00;99903.88;5851159;24;20112;-80
2024/02/14 02:11:02;;;;;;;0.05;0.05;;;;;;;10.65;100.00;99865.13;5796764;24;20025;-80
2024/02/14 02:13:33;;;;;;;0.00;0.00;;;;;;;10.85;100.00;99895.38;5786797;24;20011;-81
2024/02/14 02:23:02;;;;;;;0.00;0.00;;;;;;;10.56;100.00;99855.88;5848629;24;20021;-78
2024/02/14 02:25:28;;;;;;;0.00;0.00;;;;;;;10.63;100.00;99872.78;5840271;24;20082;-80
2024/02/14 02:35:04;;;;;;;0.00;0.00;;;;;;;10.75;100.00;99869.72;5878356;24;20021;-80
2024/02/14 02:48:21;;;;;;;;;;;;;;;;;;;;;
2024/02/14 02:51:29;;;;;;;0.00;0.00;;;;;;;10.89;100.00;99886.34;5822613;24;20046;-79
2024/02/14 02:53:55;;;;;;;0.00;0.00;;;;;;;10.62;100.00;99846.53;5899707;24;20013;-79
2024/02/14 02:56:22;;;;;;;0.00;0.00;;;;;;;10.65;100.00;99865.13;5955814;24;20011;-79
2024/02/14 03:03:27;;;;;;;0.00;0.00;;;;;;;10.84;100.00;99891.84;6027712;23;20059;-77
2024/02/14 03:05:55;;;;;;;0.00;0.00;;;;;;;10.68;100.00;99860.22;6012403;23;20011;-78
2024/02/14 03:08:21;;;;;;;0.00;0.00;;;;;;;10.78;100.00;99873.84;6038990;23;20055;-77
2024/02/14 03:11:43;;;;;;;;;;;;;;;;;;;;;
2024/02/14 03:15:11;;;;;;;0.00;0.00;;;;;;;10.59;100.00;99854.50;6012490;23;20045;-79
2024/02/14 03:17:52;;;;;;;0.00;0.00;;;;;;;10.59;100.00;99849.84;6000356;23;20012;-80
2024/02/14 03:20:19;;;;;;;0.00;0.00;;;;;;;10.50;100.00;99837.88;6008663;23;20403;-80
2024/02/14 03:22:45;;;;;;;0.00;0.00;;;;;;;10.76;100.00;99881.47;6009332;23;20022;-78
2024/02/14 03:29:59;;;;;;;0.00;0.00;;;;;;;10.76;100.00;99884.22;6087001;23;20024;-80
2024/02/14 03:32:16;;;;;;;0.00;0.00;;;;;;;10.58;100.00;99850.94;6132464;23;20005;-81
2024/02/14 03:34:41;;;;;;;0.00;0.00;;;;;;;10.79;100.00;99880.91;6107416;23;20010;-79
2024/02/14 03:37:10;;;;;;;0.00;0.00;;;;;;;10.52;100.00;99849.31;6154280;23;20068;-80
2024/02/14 03:46:39;;;;;;;0.00;0.00;;;;;;;10.53;100.00;99850.13;5986484;24;20003;-81
2024/02/14 03:49:05;;;;;;;0.00;0.00;;;;;;;10.58;100.00;99853.66;6010014;23;20011;-81
2024/02/14 03:51:34;;;;;;;0.00;0.00;;;;;;;10.52;100.00;99837.59;6062619;23;20155;-80
2024/02/14 04:01:02;;;;;;;0.00;0.00;;;;;;;10.73;100.00;99865.63;5986472;23;20039;-81
2024/02/14 04:10:38;;;;;;;0.00;0.00;;;;;;;10.48;100.00;99831.84;5954015;24;20104;-78
2024/02/14 04:13:06;;;;;;;0.00;0.00;;;;;;;10.78;100.00;99880.09;5986001;23;20004;-80
2024/02/14 04:15:32;;;;;;;0.00;0.00;;;;;;;10.61;100.00;99842.16;6014065;23;20068;-81
2024/02/14 04:17:59;;;;;;;0.00;0.00;;;;;;;10.65;100.00;99848.72;6011875;23;20020;-80
2024/02/14 04:25:08;;;;;;;0.00;0.00;;;;;;;10.50;100.00;99813.25;6014097;23;20091;-81
2024/02/14 04:27:33;;;;;;;0.00;0.00;;;;;;;10.80;100.00;99860.69;5925408;24;20061;-83
2024/02/14 04:37:02;;;;;;;0.00;0.00;;;;;;;10.73;100.00;99865.63;5850798;24;20022;-79
2024/02/14 04:39:28;;;;;;;0.00;0.00;;;;;;;10.63;100.00;99828.22;5897015;24;20009;-77
2024/02/14 04:41:54;;;;;;;0.00;0.00;;;;;;;10.74;100.00;99845.41;5925320;24;20156;-79
2024/02/14 04:44:19;;;;;;;0.00;0.00;;;;;;;10.87;100.00;99872.13;6037642;23;20011;-79
2024/02/14 04:46:45;;;;;;;0.08;0.08;;;;;;;10.77;100.00;99866.72;6045778;23;20021;-79
2024/02/14 04:49:10;;;;;;;0.00;0.00;;;;;;;10.92;100.00;99877.59;6162253;23;20000;-79
2024/02/14 04:51:41;;;;;;;0.00;0.00;;;;;;;10.92;100.00;99883.06;6166243;23;20509;-79
2024/02/14 04:55:28;;;;;;;;;;;;;;;;;;;;;
2024/02/14 04:58:33;;;;;;;0.10;0.10;;;;;;;10.65;100.00;99837.78;6004168;23;20052;-80
2024/02/14 05:01:02;;;;;;;0.00;0.00;;;;;;;10.68;100.00;99835.59;5927979;24;20035;-79
2024/02/14 05:03:27;;;;;;;0.00;0.00;;;;;;;10.76;100.00;99854.13;5928169;24;20013;-77
2024/02/14 05:05:53;;;;;;;0.00;0.00;;;;;;;10.80;100.00;99860.69;5925671;24;20514;-80
2024/02/14 05:08:18;;;;;;;0.00;0.00;;;;;;;10.89;100.00;99869.91;5931553;24;20009;-79
2024/02/14 05:10:45;;;;;;;0.00;0.00;;;;;;;10.89;100.00;99869.13;5907094;24;20031;-81
2024/02/14 05:13:11;;;;;;;0.10;0.10;;;;;;;10.89;100.00;99858.97;5929397;24;20032;-81
2024/02/14 05:22:38;;;;;;;0.00;0.00;;;;;;;10.74;100.00;99845.41;5876080;24;20058;-78
2024/02/14 05:25:04;;;;;;;0.00;0.00;;;;;;;10.80;100.00;99866.16;5875299;24;20021;-78
2024/02/14 05:27:31;;;;;;;0.00;0.00;;;;;;;10.79;100.00;99865.34;5874965;24;20041;-81
2024/02/14 05:29:57;;;;;;;0.00;0.00;;;;;;;10.70;100.00;99856.06;5874647;24;20018;-81
2024/02/14 05:32:23;;;;;;;0.03;0.03;;;;;;;10.83;100.00;99871.91;5874744;24;20010;-79
2024/02/14 05:35:17;;;;;;;0.00;0.00;;;;;;;10.90;100.00;99882.50;5902952;24;20013;-79
2024/02/14 05:41:49;;;;;;;0.00;0.00;;;;;;;10.69;100.00;99843.53;6000095;23;20123;-79
2024/02/14 05:44:14;;;;;;;0.03;0.03;;;;;;;10.82;100.00;99864.78;6161578;23;20009;-79
2024/02/14 05:46:39;;;;;;;0.10;0.10;;;;;;;10.85;100.00;99862.56;6163179;23;20028;-79
2024/02/14 05:49:04;;;;;;;0.00;0.00;;;;;;;10.93;100.00;99868.25;6162089;23;20040;-79
2024/02/14 05:51:30;;;;;;;0.00;0.00;;;;;;;10.75;100.00;99830.63;6141608;23;20005;-79
2024/02/14 05:53:55;;;;;;;0.00;0.00;;;;;;;10.70;100.00;99839.66;6161096;23;20036;-80
2024/02/14 05:56:21;;;;;;;0.00;0.00;;;;;;;10.93;100.00;99868.25;6162551;23;20021;-79
2024/02/14 05:58:46;;;;;;;0.00;0.00;;;;;;;10.85;100.00;99865.31;6188183;23;20087;-79
2024/02/14 06:02:15;;;;;;;;;;;;;;;;;;;;;
2024/02/14 06:09:12;;;;;;;;;;;;;;;;;;;;;
2024/02/14 06:12:46;;;;;;;0.00;0.00;;;;;;;10.73;100.00;99860.16;5990407;23;20016;-80
2024/02/14 06:15:23;;;;;;;0.00;0.00;;;;;;;10.77;100.00;99869.44;6039793;23;20003;-80
2024/02/14 06:18:27;;;;;;;0.00;0.00;;;;;;;10.70;100.00;99852.53;6045133;23;20879;-81
2024/02/14 06:21:26;;;;;;;;;;;;;;;;;;;;;
2024/02/14 06:24:36;;;;;;;0.00;0.00;;;;;;;11.09;100.00;99898.28;5966735;23;20082;-77
2024/02/14 06:27:02;;;;;;;0.00;0.00;;;;;;;11.08;100.00;99902.13;6006135;23;20008;-76
2024/02/14 06:29:27;;;;;;;0.00;0.00;;;;;;;10.91;100.00;99875.13;5986024;23;20008;-79
2024/02/14 06:31:55;;;;;;;0.00;0.00;;;;;;;11.04;100.00;99898.31;6067884;23;20486;-76
2024/02/14 06:34:21;;;;;;;0.10;0.10;;;;;;;11.16;100.00;99917.94;6187916;23;20084;-77
2024/02/14 06:36:47;;;;;;;0.00;0.00;;;;;;;11.16;100.00;99912.47;6213724;23;20016;-77
2024/02/14 06:46:23;;;;;;;0.00;0.00;;;;;;;10.95;100.00;99868.81;5983988;24;20047;-76
2024/02/14 06:48:59;;;;;;;;;;;;;;;;;;;;;
2024/02/14 06:52:10;;;;;;;0.10;0.10;;;;;;;11.21;100.00;99922.56;6011554;23;20043;-78
2024/02/14 06:59:04;;;;;;;;;;;;;;;;;;;;;
2024/02/14 07:02:16;;;;;;;0.00;0.00;;;;;;;10.96;100.00;99869.63;6088776;23;20038;-77
2024/02/14 07:04:26;;;;;;;;;;;;;;;;;;;;;
2024/02/14 07:07:28;;;;;;;;;;;;;;;;;;;;;
2024/02/14 07:16:59;;;;;;;;;;;;;;;;;;;;;
2024/02/14 07:19:42;;;;;;;;;;;;;;;11.16;100.00;99923.44;6186398;23;20130;-76
2024/02/14 07:22:25;;;;;;;0.00;0.00;;;;;;;10.94;100.00;99894.53;6193049;23;19935;-76
2024/02/14 07:24:53;;;;;;;0.00;0.00;;;;;;;10.94;100.00;99894.53;6214123;23;20091;-77
2024/02/14 07:27:20;;;;;;;0.00;0.00;;;;;;;11.09;100.00;99918.25;6164987;23;20035;-76
2024/02/14 07:29:52;;;;;;;0.00;0.00;;;;;;;11.05;100.00;99919.09;6163471;23;20019;-77
2024/02/14 07:32:18;;;;;;;0.00;0.00;;;;;;;10.97;100.00;99910.38;6188116;23;20276;-77
2024/02/14 07:34:44;;;;;;;0.00;0.00;;;;;;;11.05;100.00;99921.84;6164307;23;20024;-76
2024/02/14 07:37:14;;;;;;;0.00;0.00;;;;;;;10.99;100.00;99919.16;6189553;23;20000;-78
2024/02/14 07:39:41;;;;;;;0.00;0.00;;;;;;;11.00;100.00;99909.00;6186948;23;20091;-77
2024/02/14 07:42:06;;;;;;;0.00;0.00;;;;;;;10.94;100.00;99905.47;6189278;23;20050;-76
2024/02/14 07:44:32;;;;;;;0.00;0.00;;;;;;;11.07;100.00;99936.03;6191076;23;20416;-76
2024/02/14 07:46:58;;;;;;;0.00;0.00;;;;;;;11.00;100.00;99920.75;6164091;23;20005;-75
2024/02/14 07:49:23;;;;;;;0.00;0.00;;;;;;;11.03;100.00;99924.06;6162127;23;20012;-77
2024/02/14 07:51:51;;;;;;;0.00;0.00;;;;;;;10.95;100.00;99911.75;6215206;23;20063;-77
2024/02/14 07:54:17;;;;;;;0.10;0.10;;;;;;;10.89;100.00;99900.00;6191731;23;20013;-76
2024/02/14 07:56:42;;;;;;;0.00;0.00;;;;;;;11.07;100.00;99930.56;6189613;23;20000;-75
2024/02/14 07:59:13;;;;;;;0.00;0.00;;;;;;;11.02;100.00;99916.94;6210386;23;20004;-75
2024/02/14 08:01:42;;;;;;;0.00;0.00;;;;;;;10.94;100.00;99910.13;6216813;23;20028;-76
2024/02/14 08:04:08;;;;;;;0.00;0.00;;;;;;;11.00;100.00;99920.75;6216437;23;20031;-75
2024/02/14 08:07:02;;;;;;;0.00;0.00;;;;;;;10.92;100.00;99902.22;6213986;23;20008;-78
2024/02/14 08:12:59;;;;;;;0.00;0.00;;;;;;;11.04;100.00;99931.13;6126687;23;20121;-76
2024/02/14 08:15:39;;;;;;;0.00;0.00;;;;;;;11.00;100.00;99931.69;6127785;23;20073;-76
2024/02/14 08:18:07;;;;;;;0.00;0.00;;;;;;;10.89;100.00;99902.75;6206836;23;20013;-77
2024/02/14 08:20:35;;;;;;;0.00;0.00;;;;;;;10.89;100.00;99904.69;6190621;23;20004;-76
2024/02/14 08:23:01;;;;;;;0.00;0.00;;;;;;;10.91;100.00;99906.03;6164577;23;20021;-78
2024/02/14 08:26:18;;;;;;;0.00;0.00;;;;;;;11.07;100.00;99936.03;6191091;23;20039;-77
2024/02/14 08:28:59;;;;;;;0.00;0.00;;;;;;;10.91;100.00;99900.56;6209311;23;20060;-76
2024/02/14 08:31:35;;;;;;;0.00;0.00;;;;;;;11.04;100.00;99914.72;6166207;23;20009;-78
2024/02/14 08:34:01;;;;;;;0.00;0.00;;;;;;;10.99;100.00;99927.34;6187602;23;20012;-76
2024/02/14 08:36:43;;;;;;;0.00;0.00;;;;;;;10.93;100.00;99900.28;6193526;23;20082;-78
2024/02/14 08:39:12;;;;;;;0.00;0.00;;;;;;;11.17;100.00;99938.75;6186705;23;20331;-78
2024/02/14 08:41:43;;;;;;;0.05;0.05;;;;;;;11.15;100.00;99932.72;6190516;23;20043;-76
2024/02/14 08:44:08;;;;;;;0.10;0.10;;;;;;;11.20;100.00;99924.50;6167404;23;20015;-77
2024/02/14 08:54:00;;;;;;;0.00;0.00;;;;;;;11.31;100.00;99958.91;6019995;23;20006;-78
2024/02/14 08:56:25;;;;;;;0.00;0.00;;;;;;;11.20;100.00;99940.94;6098075;23;20010;-77
2024/02/14 08:59:49;;;;;;;;;;;;;;;;;;;;;
2024/02/14 09:02:40;;;;;;;0.00;0.00;;;;;;;11.10;100.00;99925.38;6217270;23;20055;-78
2024/02/14 09:05:23;;;;;;;;;;;;;;;;;;;;;
2024/02/14 09:08:00;;;;;;;0.00;0.00;;;;;;;11.34;100.00;99947.38;6219660;23;20020;-78
2024/02/14 09:10:59;;;;;;;;;;;;;;;;;;;;;
2024/02/14 09:13:37;;;;;;;0.00;0.00;;;;;;;11.27;100.00;99919.53;6218188;23;20024;-76
2024/02/14 09:20:18;;;;;;;0.00;0.00;;;;;;;11.42;100.00;99947.91;6162365;23;20474;-77
2024/02/14 09:24:06;;;;;;;;;;;;;;;;;;;;;
2024/02/14 09:26:32;;;;;;;0.00;0.00;;;;;;;11.51;100.00;99946.22;6130272;23;20036;-79
2024/02/14 09:29:03;;;;;;;0.00;0.00;;;;;;;11.69;100.00;99983.84;6102231;23;19998;-79
2024/02/14 09:31:51;;;;;;;;;;;;;;;;;;;;;
2024/02/14 09:35:17;;;;;;;0.00;0.00;;;;;;;11.45;100.00;99919.97;6220696;23;20027;-79
2024/02/14 09:37:52;;;;;;;;;;;;;;;11.79;100.00;99961.06;6172541;23;20049;-78
2024/02/14 09:41:21;;;;;;;;;;;;;;;;;;;;;
2024/02/14 09:44:31;;;;;;;0.00;0.00;;;;;;;12.05;100.00;99988.31;6144554;23;20537;-78
2024/02/14 09:47:55;;;;;;;;;;;;;;;;;;;;;
2024/02/14 09:51:01;;;;;;;0.00;0.00;;;;;;;12.07;100.00;99957.88;6221757;23;20352;-78
2024/02/14 09:53:32;;;;;;;0.00;0.00;;;;;;;12.36;100.00;99991.59;6192884;23;20431;-78
2024/02/14 09:56:07;;;;;;;0.00;0.00;;;;;;;12.47;100.00;100007.94;6194574;23;20012;-79
2024/02/14 09:59:06;;;;;;;;;;;;;;;;;;;;;
2024/02/14 10:02:10;;;;;;;0.00;0.00;;;;;;;12.46;100.00;100000.84;6220417;22;20011;-77
2024/02/14 10:04:39;;;;;;;0.10;0.10;;;;;;;12.43;100.00;99993.19;6192925;23;20019;-79
2024/02/14 10:07:04;;;;;;;0.00;0.00;;;;;;;12.47;100.00;99999.72;6195725;23;20011;-76
2024/02/14 10:09:41;;;;;;;0.00;0.00;;;;;;;12.43;100.00;99982.22;6218316;23;19997;-76
2024/02/14 10:12:08;;;;;;;0.00;0.00;;;;;;;12.36;100.00;99983.34;6218386;23;20312;-77
2024/02/14 10:15:07;;;;;;;0.00;0.00;;;;;;;12.26;100.00;99983.47;6218403;23;20043;-78
2024/02/14 10:17:33;;;;;;;0.00;0.00;;;;;;;12.36;100.00;99999.00;6171588;23;20005;-77
2024/02/14 10:20:11;;;;;;;0.00;0.00;;;;;;;12.49;100.00;100024.94;6190664;23;20327;-76
2024/02/14 10:22:41;;;;;;;0.00;0.00;;;;;;;12.47;100.00;100013.44;6192355;23;20016;-74
2024/02/14 10:25:08;;;;;;;0.00;0.00;;;;;;;12.36;100.00;100005.28;6217342;23;20016;-75
2024/02/14 10:27:37;;;;;;;0.00;0.00;;;;;;;12.53;100.00;100036.97;6169721;23;20056;-76
2024/02/14 10:30:11;;;;;;;0.00;0.00;;;;;;;12.63;100.00;100031.41;6167606;23;20008;-74
2024/02/14 10:32:47;;;;;;;0.00;0.00;;;;;;;12.68;100.00;100025.84;6217799;23;20015;-75
2024/02/14 10:35:13;;;;;;;0.00;0.00;;;;;;;12.68;100.00;100028.59;6189890;23;20008;-78
2024/02/14 10:38:03;;;;;;;;;;;;;;;;;;;;;
2024/02/14 10:40:29;;;;;;;0.00;0.00;;;;;;;12.39;100.00;99998.44;6218764;23;20028;-76
2024/02/14 10:43:12;;;;;;;0.00;0.00;;;;;;;12.63;100.00;100031.41;6222893;23;20008;-76
2024/02/14 10:45:42;;;;;;;0.10;0.10;;;;;;;12.61;100.00;100039.06;6195261;23;20722;-76
2024/02/14 10:48:12;;;;;;;0.00;0.00;;;;;;;12.30;100.00;100011.94;6163935;23;20011;-75
2024/02/14 10:50:49;;;;;;;0.00;0.00;;;;;;;12.55;100.00;100040.25;6221607;23;20031;-76
2024/02/14 10:54:03;;;;;;;0.00;0.00;;;;;;;12.52;100.00;100051.78;6223565;23;19997;-76
2024/02/14 10:56:43;;;;;;;0.00;0.00;;;;;;;12.46;100.00;100055.69;6195102;23;20042;-76
2024/02/14 10:59:21;;;;;;;0.00;0.00;;;;;;;12.34;100.00;100048.66;6196149;23;20009;-76
2024/02/14 11:01:49;;;;;;;0.00;0.00;;;;;;;12.45;100.00;100056.78;6194257;23;20026;-77
2024/02/14 11:04:33;;;;;;;0.00;0.00;;;;;;;12.51;100.00;100061.94;6192204;23;20335;-76
2024/02/14 11:07:19;;;;;;;0.00;0.00;;;;;;;12.16;100.00;100027.41;6218096;23;20005;-77
2024/02/14 11:10:04;;;;;;;0.00;0.00;;;;;;;12.38;100.00;100057.94;6192098;23;20001;-77
2024/02/14 11:12:36;;;;;;;0.00;0.00;;;;;;;12.42;100.00;100058.16;6193783;23;20016;-75
2024/02/14 11:15:10;;;;;;;0.00;0.00;;;;;;;12.37;100.00;100034.34;6197236;23;20001;-77
2024/02/14 11:17:40;;;;;;;0.00;0.00;;;;;;;12.61;100.00;100066.50;6221036;23;20005;-76
2024/02/14 11:20:36;;;;;;;0.00;0.00;;;;;;;12.42;100.00;100024.47;6198723;23;20000;-76
2024/02/14 11:23:11;;;;;;;0.00;0.00;;;;;;;12.67;100.00;100073.56;6128968;23;20002;-76
2024/02/14 11:25:39;;;;;;;0.00;0.00;;;;;;;12.23;100.00;100006.78;6194323;23;20411;-75
2024/02/14 11:28:33;;;;;;;0.00;0.00;;;;;;;12.12;100.00;100009.88;6218519;23;20023;-76
2024/02/14 11:31:09;;;;;;;0.00;0.00;;;;;;;12.32;100.00;100053.59;6193387;23;20004;-76
2024/02/14 11:34:00;;;;;;;0.00;0.00;;;;;;;12.26;100.00;100049.25;6194234;23;19997;-75
2024/02/14 11:36:26;;;;;;;0.00;0.00;;;;;;;12.27;100.00;100056.38;6165603;23;20020;-76
2024/02/14 11:38:54;;;;;;;0.00;0.00;;;;;;;12.20;100.00;100039.44;6190668;23;20013;-75
2024/02/14 11:41:20;;;;;;;0.00;0.00;;;;;;;12.37;100.00;100055.50;6192263;23;20043;-76
2024/02/14 11:43:55;;;;;;;0.00;0.00;;;;;;;12.45;100.00;100051.31;6191918;23;20438;-75
2024/02/14 11:46:20;;;;;;;0.00;0.00;;;;;;;12.66;100.00;100052.75;6193381;23;20093;-75
2024/02/14 11:48:46;;;;;;;0.00;0.00;;;;;;;12.66;100.00;100060.16;6163613;23;20009;-76
2024/02/14 11:51:14;;;;;;;0.00;0.00;;;;;;;12.67;100.00;100059.84;6191594;23;20502;-75
2024/02/14 11:53:51;;;;;;;0.00;0.00;;;;;;;12.73;100.00;100064.22;6190738;23;20004;-76
2024/02/14 11:56:17;;;;;;;0.00;0.00;;;;;;;12.66;100.00;100039.03;6192970;23;20008;-76
2024/02/14 11:58:42;;;;;;;0.10;0.10;;;;;;;12.69;100.00;100052.19;6217786;23;20312;-75
2024/02/14 12:01:09;;;;;;;0.00;0.00;;;;;;;12.76;100.00;100060.06;6166923;23;20009;-76
2024/02/14 12:06:38;;;;;;;0.00;0.00;;;;;;;12.85;100.00;100043.78;6218748;23;20027;-76
2024/02/14 12:09:12;;;;;;;0.00;0.00;;;;;;;13.00;100.00;100068.31;6188710;23;20087;-77
2024/02/14 12:11:46;;;;;;;;;;;;;;;13.03;100.00;100067.75;6194569;23;20383;-77
2024/02/14 12:14:13;;;;;;;0.00;0.00;;;;;;;12.93;100.00;100045.88;6192645;23;19911;-77
2024/02/14 12:16:42;;;;;;;0.08;0.08;;;;;;;13.05;100.00;100043.56;6167118;23;20832;-76
2024/02/14 12:19:19;;;;;;;0.00;0.00;;;;;;;13.04;100.00;100041.94;6166858;23;20089;-76
2024/02/14 12:21:45;;;;;;;0.00;0.00;;;;;;;13.18;100.00;100054.94;6192160;23;20330;-74
2024/02/14 12:24:15;;;;;;;0.00;0.00;;;;;;;13.25;100.00;100052.66;6189878;23;19996;-76
2024/02/14 12:26:42;;;;;;;0.00;0.00;;;;;;;13.28;100.00;100068.56;6162794;23;20032;-76
2024/02/14 12:29:10;;;;;;;0.08;0.08;;;;;;;13.16;100.00;100043.47;6166245;23;20013;-76
2024/02/14 12:31:36;;;;;;;0.00;0.00;;;;;;;13.17;100.00;100056.06;6215863;23;20009;-76
2024/02/14 12:34:04;;;;;;;0.00;0.00;;;;;;;13.13;100.00;100077.78;6212667;23;20470;-77
2024/02/14 12:36:31;;;;;;;0.00;0.00;;;;;;;12.95;100.00;100073.03;6212425;23;20016;-75
2024/02/14 12:38:57;;;;;;;0.00;0.00;;;;;;;12.74;100.00;100054.84;6186877;23;20005;-76
2024/02/14 12:41:26;;;;;;;0.10;0.10;;;;;;;12.73;100.00;100053.25;6166141;23;20744;-75
2024/02/14 12:43:52;;;;;;;0.00;0.00;;;;;;;12.86;100.00;100057.19;6188601;23;20015;-75
2024/02/14 12:46:18;;;;;;;0.00;0.00;;;;;;;12.86;100.00;100050.91;6190112;23;20601;-76
2024/02/14 12:48:44;;;;;;;0.10;0.10;;;;;;;13.06;100.00;100072.63;6213025;23;20002;-76
2024/02/14 12:51:10;;;;;;;0.00;0.00;;;;;;;13.13;100.00;100085.19;6165755;23;20018;-77
2024/02/14 12:53:35;;;;;;;0.00;0.00;;;;;;;13.06;100.00;100067.16;6188915;23;20005;-76
2024/02/14 12:56:01;;;;;;;0.00;0.00;;;;;;;13.08;100.00;100066.84;6190700;23;20004;-77
2024/02/14 12:58:29;;;;;;;0.00;0.00;;;;;;;13.14;100.00;100062.13;6194054;23;20015;-75
2024/02/14 13:00:56;;;;;;;0.00;0.00;;;;;;;13.03;100.00;100051.28;6164513;23;20008;-76
2024/02/14 13:03:22;;;;;;;0.00;0.00;;;;;;;13.12;100.00;100075.34;6191901;23;20009;-76
2024/02/14 13:05:50;;;;;;;0.00;0.00;;;;;;;13.12;100.00;100076.16;6186694;23;20015;-77
2024/02/14 13:08:16;;;;;;;0.00;0.00;;;;;;;12.96;100.00;100056.28;6167049;23;20013;-77
2024/02/14 13:10:46;;;;;;;0.00;0.00;;;;;;;13.04;100.00;100060.31;6163078;23;20071;-79
2024/02/14 13:13:12;;;;;;;0.00;0.00;;;;;;;12.97;100.00;100046.94;6216177;23;20079;-77
2024/02/14 13:15:37;;;;;;;0.00;0.00;;;;;;;13.07;100.00;100041.34;6189738;23;20431;-77
2024/02/14 13:18:03;;;;;;;0.00;0.00;;;;;;;13.12;100.00;100062.44;6184091;23;20012;-77
2024/02/14 13:20:31;;;;;;;0.10;0.10;;;;;;;12.91;100.00;100056.34;6163816;23;20008;-78
2024/02/14 13:23:04;;;;;;;0.00;0.00;;;;;;;12.89;100.00;100066.78;6213498;23;20489;-77
2024/02/14 13:26:08;;;;;;;;;;;;;;;;;;;;;
2024/02/14 13:28:59;;;;;;;0.00;0.00;;;;;;;13.13;100.00;100082.44;6188766;23;20084;-78
2024/02/14 13:32:18;;;;;;;;;;;;;;;;;;;;;
2024/02/14 13:35:13;;;;;;;0.00;0.00;;;;;;;13.32;100.00;100088.84;6198248;23;20035;-78
2024/02/14 13:37:49;;;;;;;0.00;0.00;;;;;;;13.15;100.00;100070.06;6180969;23;20059;-80
2024/02/14 13:40:33;;;;;;;0.00;0.00;;;;;;;13.04;100.00;100052.91;6192762;23;20070;-78
2024/02/14 13:43:07;;;;;;;0.00;0.00;;;;;;;12.85;100.00;100052.84;6190931;23;19992;-79
2024/02/14 13:46:21;;;;;;;;;;;;;;;;;;;;;
2024/02/14 13:48:46;;;;;;;0.00;0.00;;;;;;;13.04;100.00;100072.13;6216745;23;20028;-78
2024/02/14 13:51:12;;;;;;;0.00;0.00;;;;;;;12.96;100.00;100055.47;6168761;23;20008;-78
2024/02/14 13:53:39;;;;;;;0.00;0.00;;;;;;;12.96;100.00;100064.50;6165778;23;20451;-78
2024/02/14 13:56:06;;;;;;;0.00;0.00;;;;;;;12.85;100.00;100065.72;6169217;23;20005;-77
2024/02/14 13:58:41;;;;;;;;;;;;;;;;;;;;;
2024/02/14 14:01:09;;;;;;;0.00;0.00;;;;;;;12.66;100.00;100069.22;6218582;23;20092;-78
2024/02/14 14:03:47;;;;;;;0.00;0.00;;;;;;;12.68;100.00;100094.41;6213053;23;20416;-77
2024/02/14 14:06:13;;;;;;;0.00;0.00;;;;;;;12.22;100.00;100027.09;6191519;23;20107;-77
2024/02/14 14:08:39;;;;;;;0.00;0.00;;;;;;;12.44;100.00;100055.97;6189589;23;20013;-76
2024/02/14 14:11:05;;;;;;;0.00;0.00;;;;;;;12.22;100.00;100026.25;6216813;23;20546;-78
2024/02/14 14:13:33;;;;;;;0.00;0.00;;;;;;;12.50;100.00;100051.25;6163789;23;20010;-80
2024/02/14 14:15:59;;;;;;;0.00;0.00;;;;;;;12.56;100.00;100050.13;6166996;23;20012;-78
2024/02/14 14:18:34;;;;;;;0.00;0.00;;;;;;;12.56;100.00;100037.19;6166960;23;20346;-78
2024/02/14 14:21:00;;;;;;;0.00;0.00;;;;;;;12.64;100.00;100076.91;6216447;23;20000;-78
2024/02/14 14:23:34;;;;;;;0.00;0.00;;;;;;;12.38;100.00;100041.50;6189874;23;20423;-79
2024/02/14 14:26:00;;;;;;;0.00;0.00;;;;;;;12.47;100.00;100051.81;6143682;23;20669;-79
2024/02/14 14:28:27;;;;;;;0.00;0.00;;;;;;;12.38;100.00;100044.22;6217838;23;20055;-78
2024/02/14 14:31:00;;;;;;;0.00;0.00;;;;;;;12.40;100.00;100032.97;6191054;23;20012;-77
2024/02/14 14:33:31;;;;;;;0.00;0.00;;;;;;;12.45;100.00;100056.78;6192470;23;20324;-77
2024/02/14 14:35:56;;;;;;;0.00;0.00;;;;;;;12.49;100.00;100057.84;6190185;23;20015;-77
2024/02/14 14:38:29;;;;;;;0.00;0.00;;;;;;;12.51;100.00;100058.38;6163664;23;20008;-77
2024/02/14 14:40:59;;;;;;;0.00;0.00;;;;;;;12.34;100.00;100032.19;6191134;23;20008;-77
2024/02/14 14:43:24;;;;;;;0.00;0.00;;;;;;;12.42;100.00;100062.84;6212659;23;20324;-78
2024/02/14 14:45:50;;;;;;;0.00;0.00;;;;;;;12.29;100.00;100040.44;6164785;23;20062;-78
2024/02/14 14:48:15;;;;;;;0.00;0.00;;;;;;;12.28;100.00;100046.22;6192656;23;20009;-79
2024/02/14 14:50:41;;;;;;;0.00;0.00;;;;;;;12.11;100.00;100038.44;6165834;23;20059;-77
2024/02/14 14:56:13;;;;;;;0.10;0.10;;;;;;;11.97;100.00;100052.78;6193296;23;20008;-78
2024/02/14 14:58:42;;;;;;;0.00;0.00;;;;;;;11.68;100.00;100020.59;6191440;23;20008;-78
2024/02/14 15:01:15;;;;;;;0.00;0.00;;;;;;;11.57;100.00;100021.75;6189432;23;20012;-78
2024/02/14 15:03:52;;;;;;;0.00;0.00;;;;;;;11.44;100.00;100014.97;6218181;23;20079;-79
2024/02/14 15:06:38;;;;;;;0.00;0.00;;;;;;;11.73;100.00;100057.28;6191941;23;20001;-78
2024/02/14 15:09:34;;;;;;;0.00;0.00;;;;;;;11.42;100.00;100030.03;6187257;23;20007;-79
2024/02/14 15:11:59;;;;;;;0.00;0.00;;;;;;;11.32;100.00;100012.56;6216432;23;20005;-77
2024/02/14 15:14:25;;;;;;;0.00;0.00;;;;;;;11.30;100.00;100014.78;6164127;23;20012;-77
2024/02/14 15:16:51;;;;;;;0.08;0.08;;;;;;;11.49;100.00;100057.91;6191656;23;20431;-77
2024/02/14 15:19:17;;;;;;;0.00;0.00;;;;;;;11.34;100.00;100050.59;6185495;23;20083;-77
2024/02/14 15:21:45;;;;;;;0.00;0.00;;;;;;;11.42;100.00;100079.31;6191108;23;20343;-77
2024/02/14 15:24:15;;;;;;;0.00;0.00;;;;;;;11.37;100.00;100054.69;6189313;23;20004;-77